Bark River, Michigan
Current Conditions -  °F | °C
As of 7:55 AM on Friday 24 Oct 2014 (Local Time) from KESC Reporting Station
Overcast Overcast  
Wind Chill:   Ceiling: 300
Heat Index:   Visibility: 4mi
Dew Point:   Wind: 3mph
Humidity: 87%   Direction: 250°WSW
Pressure: 29.98"   Gusts: NA
Location:  45.71°N, 87.3°W
Report Text: KESC 241155Z AUTO 25003KT 4SM OVC003 08/06 A2998 RMK AO1 70001 10090 20080 57003
Loading
Personal Weather Stations






























Interactive Weather Map
Tropical Storm Tracking
New forecast layout! Learn more

10-Day Weather Forecast

Advertisements
Track Severe Weather on mobile